Time;durP1;ratioP1;P1;durP2;ratioP2;P2;SDS_P1;SDS_P2;PMS_P1;PMS_P2;Temp;Humidity;BMP_temperature;BMP_pressure;BME280_temperature;BME280_humidity;BME280_pressure;Samples;Min_cycle;Max_cycle;Signal;HPM_P1;HPM_P2
2023/05/17 00:02:02;;;;;;;7.15;3.85;;;26.80;99.90;;;;;;5036344;28;20060;-54
2023/05/17 00:04:28;;;;;;;6.50;4.03;;;26.80;99.90;;;;;;5034635;28;20045;-55
2023/05/17 00:06:54;;;;;;;6.32;4.00;;;26.80;99.90;;;;;;5035705;28;20057;-53
2023/05/17 00:09:20;;;;;;;6.07;4.10;;;26.80;99.90;;;;;;5035605;28;20036;-53
2023/05/17 00:11:45;;;;;;;6.70;3.92;;;26.70;99.90;;;;;;5035601;28;20485;-53
2023/05/17 00:14:11;;;;;;;7.13;3.85;;;26.80;99.90;;;;;;5035628;28;20418;-54
2023/05/17 00:16:37;;;;;;;7.55;3.78;;;26.70;99.90;;;;;;5035575;28;20473;-53
2023/05/17 00:19:03;;;;;;;5.47;3.70;;;26.70;99.90;;;;;;5035429;28;20038;-54
2023/05/17 00:21:28;;;;;;;6.15;3.83;;;26.70;99.90;;;;;;5035452;28;20033;-53
2023/05/17 00:23:54;;;;;;;6.45;4.03;;;26.70;99.90;;;;;;5035939;28;20499;-55
2023/05/17 00:26:20;;;;;;;6.03;4.05;;;26.70;99.90;;;;;;5033896;28;20381;-54
2023/05/17 00:28:46;;;;;;;5.15;3.85;;;26.70;99.90;;;;;;5035530;28;20381;-54
2023/05/17 00:31:12;;;;;;;5.05;3.55;;;26.70;99.90;;;;;;5035758;28;20036;-56
2023/05/17 00:33:37;;;;;;;5.80;3.83;;;26.70;99.90;;;;;;5035295;28;20021;-55
2023/05/17 00:36:03;;;;;;;6.40;4.10;;;26.70;99.90;;;;;;5035293;28;20383;-55
2023/05/17 00:38:29;;;;;;;6.47;3.85;;;26.70;99.90;;;;;;5035269;28;20025;-55
2023/05/17 00:40:55;;;;;;;5.57;4.13;;;26.70;99.90;;;;;;5035185;28;20083;-55
2023/05/17 00:43:21;;;;;;;5.75;3.75;;;26.70;99.90;;;;;;5035037;28;20031;-56
2023/05/17 00:45:48;;;;;;;8.90;4.22;;;26.60;99.90;;;;;;5034942;28;20021;-55
2023/05/17 00:48:14;;;;;;;5.75;3.45;;;26.70;99.90;;;;;;5034997;28;20021;-55
2023/05/17 00:50:40;;;;;;;6.82;3.53;;;26.60;99.90;;;;;;5034908;28;20033;-55
2023/05/17 00:53:08;;;;;;;5.95;3.55;;;26.60;99.90;;;;;;5034798;28;20359;-55
2023/05/17 00:55:34;;;;;;;5.82;3.65;;;26.60;99.90;;;;;;5034969;28;20116;-56
2023/05/17 00:58:00;;;;;;;6.63;3.75;;;26.60;99.90;;;;;;5034768;28;20029;-55
2023/05/17 01:00:26;;;;;;;6.55;3.53;;;26.60;99.90;;;;;;5035297;28;20021;-53
2023/05/17 01:02:52;;;;;;;5.53;3.58;;;26.60;99.90;;;;;;5034716;28;20029;-55
2023/05/17 01:05:17;;;;;;;5.25;3.50;;;26.60;99.90;;;;;;5034574;28;20033;-55
2023/05/17 01:07:43;;;;;;;8.18;3.72;;;26.60;99.90;;;;;;5034578;28;20032;-55
2023/05/17 01:10:09;;;;;;;5.15;3.72;;;26.60;99.90;;;;;;5034382;28;20042;-56
2023/05/17 01:12:59;;;;;;;4.80;3.55;;;26.60;99.90;;;;;;5034659;28;20017;-56
2023/05/17 01:15:30;;;;;;;6.45;4.10;;;26.60;99.90;;;;;;5034447;28;20049;-55
2023/05/17 01:18:17;;;;;;;5.07;3.50;;;26.60;99.90;;;;;;5034554;28;20028;-54
2023/05/17 01:20:45;;;;;;;7.45;4.13;;;26.50;99.90;;;;;;5034236;28;20026;-53
2023/05/17 01:23:25;;;;;;;5.35;3.35;;;26.50;99.90;;;;;;5034405;28;20112;-53
2023/05/17 01:26:21;;;;;;;4.15;3.20;;;26.50;99.90;;;;;;5034347;28;20029;-55
2023/05/17 01:28:52;;;;;;;3.95;3.15;;;26.50;99.90;;;;;;5034101;28;20037;-54
2023/05/17 01:31:19;;;;;;;5.13;3.25;;;26.50;99.90;;;;;;5033134;28;20024;-54
2023/05/17 01:33:45;;;;;;;6.10;3.67;;;26.50;99.90;;;;;;5034045;28;20034;-54
2023/05/17 01:36:11;;;;;;;5.18;3.47;;;26.50;99.90;;;;;;5034184;28;20085;-55
2023/05/17 01:38:37;;;;;;;5.30;3.47;;;26.50;99.90;;;;;;5034010;28;20409;-54
2023/05/17 01:41:06;;;;;;;6.32;3.92;;;26.50;99.90;;;;;;5032523;28;20493;-54
2023/05/17 01:44:01;;;;;;;5.50;3.22;;;26.50;99.90;;;;;;5033828;28;20026;-54
2023/05/17 01:46:30;;;;;;;4.95;3.17;;;26.50;99.90;;;;;;5033765;28;20022;-54
2023/05/17 01:49:09;;;;;;;5.85;3.40;;;26.50;99.90;;;;;;5033934;28;20026;-54
2023/05/17 01:51:46;;;;;;;4.35;3.33;;;26.50;99.90;;;;;;5032856;28;20018;-55
2023/05/17 01:54:14;;;;;;;4.93;3.00;;;26.50;99.90;;;;;;5032312;28;20026;-55
2023/05/17 01:56:47;;;;;;;6.28;3.20;;;26.50;99.90;;;;;;5033746;28;20033;-55
2023/05/17 01:59:18;;;;;;;5.45;3.30;;;26.40;99.90;;;;;;5016701;28;20116;-55
2023/05/17 02:01:46;;;;;;;4.57;3.20;;;26.40;99.90;;;;;;5016942;28;20045;-55
2023/05/17 02:04:12;;;;;;;6.57;3.22;;;26.50;99.90;;;;;;5033359;28;20025;-54
2023/05/17 02:06:37;;;;;;;5.90;3.58;;;26.40;99.90;;;;;;5033296;28;20374;-55
2023/05/17 02:09:03;;;;;;;4.47;3.22;;;26.40;99.90;;;;;;5033310;28;20111;-54
2023/05/17 02:11:29;;;;;;;4.22;3.17;;;26.50;99.90;;;;;;5033215;28;20013;-53
2023/05/17 02:13:55;;;;;;;4.40;3.42;;;26.40;99.90;;;;;;5033152;28;20022;-55
2023/05/17 02:16:21;;;;;;;4.07;3.15;;;26.40;99.90;;;;;;5032983;28;20017;-55
2023/05/17 02:18:46;;;;;;;4.00;3.03;;;26.40;99.90;;;;;;5033143;28;20075;-53
2023/05/17 02:21:12;;;;;;;7.57;3.67;;;26.40;99.90;;;;;;5032965;28;20469;-54
2023/05/17 02:23:38;;;;;;;4.13;2.85;;;26.40;99.90;;;;;;5033019;28;20468;-54
2023/05/17 02:26:04;;;;;;;5.70;3.63;;;26.40;99.90;;;;;;5033107;28;20036;-54
2023/05/17 02:28:30;;;;;;;5.35;3.53;;;26.40;99.90;;;;;;5030877;28;20496;-54
2023/05/17 02:30:55;;;;;;;4.07;2.55;;;26.40;99.90;;;;;;5031791;28;20084;-55
2023/05/17 02:33:22;;;;;;;5.13;3.22;;;26.40;99.90;;;;;;5032862;28;20028;-55
2023/05/17 02:35:50;;;;;;;5.20;3.38;;;26.40;99.90;;;;;;5032845;28;20035;-55
2023/05/17 02:38:16;;;;;;;4.07;3.47;;;26.40;99.90;;;;;;5033030;28;20025;-55
2023/05/17 02:40:42;;;;;;;4.78;3.15;;;26.40;99.90;;;;;;5031349;28;20539;-55
2023/05/17 02:43:08;;;;;;;4.20;2.90;;;26.40;99.90;;;;;;5032713;28;20542;-55
2023/05/17 02:45:34;;;;;;;4.15;3.10;;;26.30;99.90;;;;;;5032746;28;20028;-56
2023/05/17 02:48:00;;;;;;;3.60;3.00;;;26.40;99.90;;;;;;5032706;28;20025;-55
2023/05/17 02:50:25;;;;;;;3.45;2.78;;;26.30;99.90;;;;;;5032440;28;20037;-55
2023/05/17 02:52:51;;;;;;;6.13;2.95;;;26.40;99.90;;;;;;5032774;28;20022;-55
2023/05/17 02:55:17;;;;;;;4.45;2.80;;;26.30;99.90;;;;;;5032730;28;20033;-56
2023/05/17 02:57:42;;;;;;;4.40;2.85;;;26.30;99.90;;;;;;5032551;28;20017;-55
2023/05/17 03:02:40;;;;;;;6.30;2.85;;;26.30;99.90;;;;;;5030827;28;20099;-56
2023/05/17 03:05:07;;;;;;;5.68;2.78;;;26.30;99.90;;;;;;5032446;28;20029;-56
2023/05/17 03:07:32;;;;;;;4.15;2.53;;;26.30;99.90;;;;;;5032740;28;20036;-57
2023/05/17 03:09:58;;;;;;;4.22;2.67;;;26.30;99.90;;;;;;5032600;28;20025;-57
2023/05/17 03:12:24;;;;;;;5.30;3.05;;;26.30;99.90;;;;;;5032541;28;20370;-57
2023/05/17 03:14:50;;;;;;;4.93;3.00;;;26.30;99.90;;;;;;5032544;28;20037;-57
2023/05/17 03:17:15;;;;;;;4.93;3.13;;;26.30;99.90;;;;;;5032370;28;20029;-56
2023/05/17 03:19:41;;;;;;;4.93;3.05;;;26.30;99.90;;;;;;5032181;28;20469;-57
2023/05/17 03:22:07;;;;;;;4.82;2.90;;;26.30;99.90;;;;;;5032477;28;20032;-57
2023/05/17 03:24:32;;;;;;;3.58;2.78;;;26.30;99.90;;;;;;5032620;28;20128;-57
2023/05/17 03:26:58;;;;;;;3.83;2.78;;;26.30;99.90;;;;;;5032420;28;20477;-56
2023/05/17 03:29:24;;;;;;;4.00;2.95;;;26.30;99.90;;;;;;5031746;28;20042;-56
2023/05/17 03:31:50;;;;;;;3.80;2.55;;;26.30;99.90;;;;;;5032375;28;20026;-57
2023/05/17 03:34:15;;;;;;;2.85;2.42;;;26.30;99.90;;;;;;5032394;28;20025;-56
2023/05/17 03:36:42;;;;;;;5.07;2.75;;;26.20;99.90;;;;;;5031669;28;20022;-57
2023/05/17 03:39:08;;;;;;;3.30;2.47;;;26.20;99.90;;;;;;5034439;28;20030;-56
2023/05/17 03:41:34;;;;;;;4.38;2.88;;;26.20;99.90;;;;;;5021327;28;20027;-57
2023/05/17 03:44:00;;;;;;;3.22;2.25;;;26.20;99.90;;;;;;5035721;28;20029;-59
2023/05/17 03:46:25;;;;;;;4.93;2.75;;;26.30;99.90;;;;;;5018012;28;20022;-58
2023/05/17 03:48:51;;;;;;;3.65;2.45;;;26.30;99.90;;;;;;5034852;28;20551;-57
2023/05/17 03:51:17;;;;;;;3.17;2.25;;;26.20;99.90;;;;;;5035435;28;20022;-56
2023/05/17 03:53:43;;;;;;;5.55;2.85;;;26.20;99.90;;;;;;5034570;28;20422;-56
2023/05/17 03:56:09;;;;;;;4.28;2.80;;;26.20;99.90;;;;;;5035639;28;20087;-57
2023/05/17 03:58:35;;;;;;;3.58;2.85;;;26.20;99.90;;;;;;5035394;28;20021;-57
2023/05/17 04:01:02;;;;;;;4.88;2.92;;;26.20;99.90;;;;;;5035666;28;20045;-57
2023/05/17 04:03:28;;;;;;;3.45;2.38;;;26.20;99.90;;;;;;5022634;28;20361;-57
2023/05/17 04:06:00;;;;;;;3.70;2.45;;;26.20;99.90;;;;;;5035266;28;20026;-57
2023/05/17 04:08:25;;;;;;;4.60;2.90;;;26.20;99.90;;;;;;5034848;28;20385;-57
2023/05/17 04:10:51;;;;;;;3.03;2.40;;;26.20;99.90;;;;;;5034216;28;20048;-56
2023/05/17 04:13:17;;;;;;;3.75;2.45;;;26.20;99.90;;;;;;5034923;28;20033;-58
2023/05/17 04:15:43;;;;;;;6.00;2.90;;;26.20;99.90;;;;;;5000957;28;20029;-59
2023/05/17 04:18:08;;;;;;;3.45;2.53;;;26.20;99.90;;;;;;5035255;28;20026;-59
2023/05/17 04:20:34;;;;;;;5.55;2.50;;;26.10;99.90;;;;;;5035156;28;20021;-58
2023/05/17 04:23:00;;;;;;;3.85;2.08;;;26.10;99.90;;;;;;5035092;28;20033;-58
2023/05/17 04:25:26;;;;;;;3.95;2.42;;;26.10;99.90;;;;;;5034856;28;20029;-61
2023/05/17 04:27:52;;;;;;;2.80;2.10;;;26.10;99.90;;;;;;5034979;28;20018;-61
2023/05/17 04:30:17;;;;;;;3.25;2.40;;;26.10;99.90;;;;;;5034948;28;20037;-60
2023/05/17 04:32:44;;;;;;;4.38;2.47;;;26.10;99.90;;;;;;5035261;28;20026;-58
2023/05/17 04:35:10;;;;;;;3.35;2.13;;;26.10;99.90;;;;;;5034912;28;20101;-59
2023/05/17 04:37:38;;;;;;;4.95;2.35;;;26.10;99.90;;;;;;5030100;28;20120;-57
2023/05/17 04:40:06;;;;;;;3.33;2.15;;;26.10;99.90;;;;;;5034672;28;20505;-57
2023/05/17 04:42:31;;;;;;;;;;;26.10;99.90;;;;;;5035017;28;20029;-56
2023/05/17 04:44:57;;;;;;;3.63;1.70;;;26.10;99.90;;;;;;5033465;28;19977;-58
2023/05/17 04:47:23;;;;;;;3.10;2.05;;;26.10;99.90;;;;;;5034510;28;20351;-61
2023/05/17 04:49:50;;;;;;;3.65;2.10;;;26.00;99.90;;;;;;5033826;28;20473;-57
2023/05/17 04:52:16;;;;;;;2.95;1.65;;;26.00;99.90;;;;;;5034358;28;20025;-57
2023/05/17 04:54:42;;;;;;;4.00;1.95;;;26.10;99.90;;;;;;5034545;28;20026;-56
2023/05/17 04:57:07;;;;;;;2.75;1.88;;;26.10;99.90;;;;;;5034134;28;20026;-57
2023/05/17 04:59:33;;;;;;;8.18;2.83;;;26.00;99.90;;;;;;5034284;28;20175;-57
2023/05/17 05:01:59;;;;;;;2.20;1.50;;;26.00;99.90;;;;;;5034255;28;20052;-57
2023/05/17 05:04:25;;;;;;;3.65;1.70;;;26.00;99.90;;;;;;5034070;28;20022;-56
2023/05/17 05:06:51;;;;;;;4.57;2.13;;;26.00;99.90;;;;;;5034143;28;20014;-56
2023/05/17 05:09:17;;;;;;;4.85;2.05;;;26.00;99.90;;;;;;5034180;28;20092;-56
2023/05/17 05:11:42;;;;;;;4.50;1.70;;;26.00;99.90;;;;;;5034054;28;20018;-55
2023/05/17 05:14:08;;;;;;;6.05;1.80;;;26.00;99.90;;;;;;5034166;28;20435;-56
2023/05/17 05:16:34;;;;;;;3.58;2.38;;;26.00;99.90;;;;;;5032657;28;20084;-55
2023/05/17 05:18:59;;;;;;;2.58;1.48;;;26.00;99.90;;;;;;5034185;28;20477;-56
2023/05/17 05:21:25;;;;;;;4.25;1.85;;;26.00;99.90;;;;;;5033988;28;20032;-57
2023/05/17 05:23:51;;;;;;;4.22;1.85;;;26.00;99.90;;;;;;5033926;28;20385;-56
2023/05/17 05:26:17;;;;;;;4.78;2.20;;;26.00;99.90;;;;;;5033768;28;20022;-56
2023/05/17 05:28:42;;;;;;;3.58;2.08;;;26.00;99.90;;;;;;5033458;28;20029;-55
2023/05/17 05:31:08;;;;;;;3.35;1.83;;;26.00;99.90;;;;;;5033847;28;20029;-57
2023/05/17 05:33:34;;;;;;;3.70;1.60;;;26.00;99.90;;;;;;5034128;28;20100;-58
2023/05/17 05:36:00;;;;;;;2.70;1.52;;;26.00;99.90;;;;;;5033650;28;20025;-56
2023/05/17 05:38:26;;;;;;;4.15;1.73;;;26.00;99.90;;;;;;5033447;28;20025;-56
2023/05/17 05:40:51;;;;;;;5.10;2.20;;;26.00;99.90;;;;;;5033649;28;20466;-56
2023/05/17 05:43:17;;;;;;;3.35;1.58;;;26.00;99.90;;;;;;5033453;28;20104;-56
2023/05/17 05:45:46;;;;;;;2.63;1.77;;;26.00;99.90;;;;;;5033836;28;20025;-58
2023/05/17 05:48:14;;;;;;;2.92;1.50;;;26.00;99.90;;;;;;5033611;28;20021;-57
2023/05/17 05:50:44;;;;;;;3.55;2.28;;;26.00;99.90;;;;;;5033574;28;20022;-56
2023/05/17 05:53:10;;;;;;;2.58;1.77;;;26.00;99.90;;;;;;5033502;28;20424;-55
2023/05/17 05:55:40;;;;;;;2.23;1.50;;;26.00;99.90;;;;;;5033427;28;20384;-56
2023/05/17 05:58:05;;;;;;;4.93;1.80;;;25.90;99.90;;;;;;5032798;28;20131;-55
2023/05/17 06:00:31;;;;;;;4.00;2.00;;;25.90;99.90;;;;;;5033514;28;20033;-56
2023/05/17 06:02:57;;;;;;;5.10;2.08;;;26.00;99.90;;;;;;5032532;28;20099;-55
2023/05/17 06:05:23;;;;;;;2.80;1.50;;;26.00;99.90;;;;;;5033355;28;20100;-56
2023/05/17 06:07:49;;;;;;;2.75;1.50;;;26.00;99.90;;;;;;5033267;28;20481;-56
2023/05/17 06:10:14;;;;;;;3.08;1.50;;;25.90;99.90;;;;;;5031721;28;20049;-56
2023/05/17 06:12:40;;;;;;;2.40;1.70;;;25.90;99.90;;;;;;5033247;28;20021;-55
2023/05/17 06:15:06;;;;;;;2.95;1.70;;;25.90;99.90;;;;;;5033075;28;20040;-56
2023/05/17 06:17:32;;;;;;;2.63;1.70;;;25.90;99.90;;;;;;5033285;28;20471;-56
2023/05/17 06:19:58;;;;;;;7.30;2.28;;;25.90;99.90;;;;;;5032803;28;20136;-56
2023/05/17 06:22:24;;;;;;;4.07;2.05;;;25.90;99.90;;;;;;5033077;28;20048;-55
2023/05/17 06:24:49;;;;;;;3.15;1.88;;;25.90;99.90;;;;;;5032563;28;20402;-55
2023/05/17 06:27:15;;;;;;;2.85;1.80;;;25.90;99.90;;;;;;5032803;28;20025;-55
2023/05/17 06:29:41;;;;;;;2.53;1.85;;;25.90;99.90;;;;;;5032835;28;20037;-55
2023/05/17 06:32:07;;;;;;;2.40;1.50;;;25.90;99.90;;;;;;5033008;28;20027;-55
2023/05/17 06:34:32;;;;;;;2.42;1.45;;;25.90;99.90;;;;;;5033076;28;20029;-55
2023/05/17 06:36:58;;;;;;;2.47;1.45;;;25.90;99.90;;;;;;5015298;28;20024;-56
2023/05/17 06:39:24;;;;;;;2.17;1.50;;;25.90;99.90;;;;;;5032935;28;20466;-55
2023/05/17 06:41:50;;;;;;;1.98;1.33;;;25.90;99.90;;;;;;5031611;28;20049;-56
2023/05/17 06:44:16;;;;;;;2.17;1.45;;;25.90;99.90;;;;;;5032670;28;20112;-56
2023/05/17 06:46:42;;;;;;;3.85;2.03;;;25.90;99.90;;;;;;5032773;28;20018;-55
2023/05/17 06:49:08;;;;;;;2.30;1.45;;;25.90;99.90;;;;;;5032955;28;20017;-55
2023/05/17 06:51:33;;;;;;;2.30;1.60;;;25.90;99.90;;;;;;5032498;28;20040;-59
2023/05/17 06:53:59;;;;;;;2.50;1.48;;;25.90;99.90;;;;;;5032890;28;20026;-56
2023/05/17 06:56:25;;;;;;;2.33;1.70;;;25.90;99.90;;;;;;5032812;28;20083;-56
2023/05/17 06:58:51;;;;;;;2.40;1.50;;;25.90;99.90;;;;;;5032719;28;20022;-56
2023/05/17 07:01:17;;;;;;;4.13;2.25;;;25.90;99.90;;;;;;5032533;28;20370;-55
2023/05/17 07:03:43;;;;;;;5.13;2.42;;;25.80;99.90;;;;;;5032832;28;20445;-56
2023/05/17 07:06:09;;;;;;;3.85;2.60;;;25.80;99.90;;;;;;5032377;28;20052;-56
2023/05/17 07:08:35;;;;;;;2.80;1.80;;;25.90;99.90;;;;;;5032657;28;20123;-57
2023/05/17 07:11:01;;;;;;;4.28;1.98;;;25.80;99.90;;;;;;5032589;28;20101;-56
2023/05/17 07:13:27;;;;;;;2.80;2.15;;;25.80;99.90;;;;;;5033352;28;20018;-56
2023/05/17 07:15:53;;;;;;;3.92;2.20;;;25.80;99.90;;;;;;5036634;28;20037;-56
2023/05/17 07:18:19;;;;;;;3.15;1.80;;;25.80;99.90;;;;;;5036001;28;20107;-56
2023/05/17 07:20:45;;;;;;;2.78;1.98;;;25.80;99.90;;;;;;5036285;28;20033;-56
2023/05/17 07:23:11;;;;;;;3.40;2.35;;;25.80;99.90;;;;;;5034950;28;20048;-56
2023/05/17 07:25:41;;;;;;;2.95;1.90;;;25.80;99.90;;;;;;5036345;28;20049;-56
2023/05/17 07:28:07;;;;;;;3.50;1.98;;;25.80;99.90;;;;;;5035840;28;20049;-56
2023/05/17 07:30:33;;;;;;;3.13;2.03;;;25.80;99.90;;;;;;5036292;28;20068;-57
2023/05/17 07:32:59;;;;;;;3.25;2.03;;;25.80;99.90;;;;;;5035851;28;20021;-56
2023/05/17 07:35:25;;;;;;;3.70;2.28;;;25.80;99.90;;;;;;5036046;28;20465;-56
2023/05/17 07:37:51;;;;;;;3.88;2.58;;;25.80;99.90;;;;;;5036194;28;20033;-56
2023/05/17 07:40:17;;;;;;;4.65;2.67;;;25.80;99.90;;;;;;5035806;28;20470;-56
2023/05/17 07:42:42;;;;;;;2.97;2.17;;;25.80;99.90;;;;;;5035891;28;20525;-56
2023/05/17 07:45:08;;;;;;;4.07;2.22;;;25.80;99.90;;;;;;5035861;28;20025;-56
2023/05/17 07:47:34;;;;;;;3.55;2.53;;;25.80;99.90;;;;;;5035954;28;20363;-56
2023/05/17 07:50:00;;;;;;;2.65;2.00;;;25.80;99.90;;;;;;5035482;28;20056;-56
2023/05/17 07:52:26;;;;;;;3.70;2.47;;;25.90;99.90;;;;;;5035967;28;20022;-56
2023/05/17 07:54:52;;;;;;;4.00;2.42;;;25.80;99.90;;;;;;5035636;28;20101;-55
2023/05/17 07:57:18;;;;;;;3.25;2.38;;;25.90;99.90;;;;;;5035615;28;20029;-56
2023/05/17 07:59:43;;;;;;;3.25;2.30;;;25.80;99.90;;;;;;5035342;28;20355;-56
2023/05/17 08:02:09;;;;;;;3.20;2.17;;;25.80;99.90;;;;;;5035461;28;20183;-55
2023/05/17 08:04:35;;;;;;;3.30;2.25;;;25.80;99.90;;;;;;5035200;28;20029;-56
2023/05/17 08:07:02;;;;;;;3.47;2.75;;;25.80;99.90;;;;;;5035562;28;20481;-55
2023/05/17 08:09:27;;;;;;;3.55;2.55;;;25.80;99.90;;;;;;5035569;28;20469;-56
2023/05/17 08:11:53;;;;;;;5.60;2.90;;;25.80;99.90;;;;;;5035277;28;20108;-55
2023/05/17 08:14:21;;;;;;;3.78;3.03;;;25.80;99.90;;;;;;5035193;28;20121;-55
2023/05/17 08:16:47;;;;;;;3.72;2.75;;;25.80;99.90;;;;;;5035347;28;20010;-55
2023/05/17 08:19:14;;;;;;;3.55;3.08;;;25.80;99.90;;;;;;5035372;28;20030;-55
2023/05/17 08:21:44;;;;;;;3.40;2.92;;;25.90;99.90;;;;;;5035080;28;20033;-55
2023/05/17 08:24:11;;;;;;;3.78;2.83;;;25.80;99.90;;;;;;5017178;28;20018;-55
2023/05/17 08:26:37;;;;;;;4.65;2.90;;;25.90;99.90;;;;;;5034240;28;20025;-55
2023/05/17 08:29:03;;;;;;;4.50;3.22;;;25.90;99.90;;;;;;5034838;28;20026;-56
2023/05/17 08:31:30;;;;;;;5.53;3.28;;;25.90;99.90;;;;;;5033574;28;20078;-55
2023/05/17 08:33:56;;;;;;;3.58;3.03;;;25.90;99.90;;;;;;5034998;28;20018;-56
2023/05/17 08:36:22;;;;;;;4.85;3.00;;;25.90;99.90;;;;;;5034667;28;20080;-56
2023/05/17 08:38:48;;;;;;;4.80;3.58;;;25.90;99.90;;;;;;5033660;28;20014;-55
2023/05/17 08:41:13;;;;;;;6.15;3.53;;;25.90;99.90;;;;;;5034749;28;20075;-56
2023/05/17 08:43:40;;;;;;;4.43;3.33;;;25.90;99.90;;;;;;5033134;28;20331;-55
2023/05/17 08:46:06;;;;;;;4.35;3.40;;;25.90;99.90;;;;;;5034850;28;20025;-55
2023/05/17 08:48:35;;;;;;;4.90;3.35;;;25.90;99.90;;;;;;5034626;28;20084;-56
2023/05/17 08:51:01;;;;;;;4.80;3.63;;;25.90;99.90;;;;;;5034737;28;20024;-55
2023/05/17 08:53:27;;;;;;;5.60;3.00;;;25.90;99.90;;;;;;5021458;28;20487;-55
2023/05/17 08:55:59;;;;;;;5.10;3.47;;;25.90;99.90;;;;;;5034611;28;20029;-56
2023/05/17 08:58:28;;;;;;;4.25;3.40;;;25.90;99.90;;;;;;5034356;28;20036;-56
2023/05/17 09:00:56;;;;;;;4.72;3.33;;;25.90;99.90;;;;;;5034305;28;20092;-56
2023/05/17 09:03:23;;;;;;;4.72;3.80;;;25.90;99.90;;;;;;5032573;28;20024;-55
2023/05/17 09:05:52;;;;;;;3.88;3.30;;;25.90;99.90;;;;;;5034261;28;20044;-57
2023/05/17 09:08:21;;;;;;;5.60;4.38;;;25.90;99.90;;;;;;5034157;28;20030;-56
2023/05/17 09:10:48;;;;;;;5.63;2.92;;;25.90;99.90;;;;;;5034459;28;20036;-56
2023/05/17 09:13:14;;;;;;;3.95;3.47;;;25.90;99.90;;;;;;5034091;28;20018;-56
2023/05/17 09:15:46;;;;;;;4.00;3.60;;;25.90;99.90;;;;;;5034254;28;20085;-56
2023/05/17 09:18:12;;;;;;;5.82;3.78;;;25.90;99.90;;;;;;5034115;28;20025;-56
2023/05/17 09:20:38;;;;;;;4.80;3.72;;;25.90;99.90;;;;;;5033700;28;20033;-56
2023/05/17 09:23:13;;;;;;;6.50;3.75;;;25.90;99.90;;;;;;5033914;28;20033;-57
2023/05/17 09:25:46;;;;;;;5.40;3.40;;;26.00;99.90;;;;;;5034181;28;20473;-56
2023/05/17 09:28:12;;;;;;;4.53;3.20;;;25.90;99.90;;;;;;5033901;28;20094;-56
2023/05/17 09:30:38;;;;;;;5.18;3.88;;;26.00;99.90;;;;;;5034062;28;20477;-56
2023/05/17 09:33:09;;;;;;;6.13;3.83;;;25.90;99.90;;;;;;5033721;28;20104;-56
2023/05/17 09:35:36;;;;;;;4.30;3.20;;;25.90;99.90;;;;;;5033639;28;20034;-56
2023/05/17 09:38:11;;;;;;;4.32;3.00;;;25.90;99.90;;;;;;5033690;28;20022;-55
2023/05/17 09:40:47;;;;;;;4.88;3.70;;;25.90;99.90;;;;;;5033679;28;20029;-56
2023/05/17 09:43:15;;;;;;;4.35;3.15;;;26.00;99.90;;;;;;5033499;28;20060;-55
2023/05/17 09:45:41;;;;;;;5.03;3.17;;;26.00;99.90;;;;;;5032135;28;20443;-55
2023/05/17 09:48:16;;;;;;;4.00;3.08;;;26.00;99.90;;;;;;5032126;28;20049;-56
2023/05/17 09:50:46;;;;;;;6.22;3.72;;;26.00;99.90;;;;;;5033352;28;20064;-56
2023/05/17 09:53:29;;;;;;;3.88;3.30;;;26.00;99.90;;;;;;5033397;28;20049;-57
2023/05/17 09:56:00;;;;;;;3.92;3.05;;;26.00;99.90;;;;;;5033470;28;20021;-56
2023/05/17 09:58:27;;;;;;;4.38;3.35;;;26.00;99.90;;;;;;5033166;28;20108;-56
2023/05/17 10:00:59;;;;;;;4.50;3.20;;;26.00;99.90;;;;;;5033403;28;20485;-55
2023/05/17 10:03:35;;;;;;;6.93;4.00;;;26.00;99.90;;;;;;5033372;28;20393;-56
2023/05/17 10:06:05;;;;;;;4.13;3.10;;;26.00;99.90;;;;;;5033256;28;20056;-56
2023/05/17 10:08:32;;;;;;;5.80;3.28;;;26.00;99.90;;;;;;5033321;28;20305;-56
2023/05/17 10:11:06;;;;;;;4.75;3.50;;;26.00;99.90;;;;;;5033267;28;20061;-56
2023/05/17 10:13:43;;;;;;;4.53;3.30;;;26.00;99.90;;;;;;5032887;28;20017;-56
2023/05/17 10:16:10;;;;;;;4.93;3.88;;;26.00;99.90;;;;;;5033232;28;20469;-55
2023/05/17 10:18:39;;;;;;;;;;;26.00;99.90;;;;;;5033638;28;20032;-55
2023/05/17 10:21:06;;;;;;;4.93;3.45;;;26.10;99.90;;;;;;5032990;28;19909;-56
2023/05/17 10:23:32;;;;;;;;;;;26.10;99.90;;;;;;5033354;28;20029;-56
2023/05/17 10:25:59;;;;;;;3.67;3.17;;;26.10;99.90;;;;;;5033162;28;20276;-56
2023/05/17 10:28:27;;;;;;;4.18;3.20;;;26.10;99.90;;;;;;5032554;28;20060;-56
2023/05/17 10:30:53;;;;;;;4.70;3.47;;;26.10;99.90;;;;;;5033324;28;20104;-56
2023/05/17 10:33:21;;;;;;;4.75;3.75;;;26.00;99.90;;;;;;5032974;28;20018;-55
2023/05/17 10:35:49;;;;;;;3.92;2.97;;;26.10;99.90;;;;;;5031451;28;20396;-55
2023/05/17 10:38:17;;;;;;;4.57;3.42;;;26.10;99.90;;;;;;5032764;28;20097;-56
2023/05/17 10:40:44;;;;;;;4.00;3.25;;;26.10;99.90;;;;;;5033126;28;20021;-56
2023/05/17 10:43:10;;;;;;;5.10;3.38;;;26.10;99.90;;;;;;5032877;28;20040;-56
2023/05/17 10:45:37;;;;;;;4.32;3.05;;;26.10;99.90;;;;;;5032807;28;20400;-56
2023/05/17 10:48:06;;;;;;;5.70;3.50;;;26.10;99.90;;;;;;5033357;28;20024;-55
2023/05/17 10:50:36;;;;;;;3.33;2.90;;;26.10;99.90;;;;;;5037010;28;20036;-56
2023/05/17 10:53:06;;;;;;;4.85;2.60;;;26.10;99.90;;;;;;5036801;28;20020;-55
2023/05/17 10:55:43;;;;;;;4.70;3.25;;;26.10;99.90;;;;;;5036978;28;20026;-56
2023/05/17 10:58:14;;;;;;;5.80;3.65;;;26.10;99.90;;;;;;5036550;28;20025;-55
2023/05/17 11:00:42;;;;;;;4.93;3.03;;;26.10;99.90;;;;;;5036648;28;20033;-56
2023/05/17 11:03:14;;;;;;;4.30;2.85;;;26.10;99.90;;;;;;5036713;28;20033;-56
2023/05/17 11:06:08;;;;;;;3.58;2.90;;;26.10;99.90;;;;;;5036697;28;20018;-57
2023/05/17 11:08:44;;;;;;;5.40;3.30;;;26.10;99.90;;;;;;5031786;28;20037;-57
2023/05/17 11:11:12;;;;;;;3.88;3.03;;;26.10;99.90;;;;;;5036474;28;20029;-57
2023/05/17 11:13:55;;;;;;;3.95;3.00;;;26.10;99.90;;;;;;5036429;28;20073;-55
2023/05/17 11:16:25;;;;;;;4.60;2.70;;;26.10;99.90;;;;;;5036366;28;20028;-56
2023/05/17 11:18:57;;;;;;;3.58;2.90;;;26.10;99.90;;;;;;5036408;28;20021;-56
2023/05/17 11:21:29;;;;;;;4.55;3.00;;;26.10;99.90;;;;;;5034702;28;20033;-55
2023/05/17 11:23:59;;;;;;;5.10;2.63;;;26.10;99.90;;;;;;5036168;28;20014;-56
2023/05/17 11:26:36;;;;;;;6.38;2.75;;;26.20;99.90;;;;;;5036391;28;20061;-55
2023/05/17 11:29:07;;;;;;;5.05;2.92;;;26.10;99.90;;;;;;5036001;28;20489;-56
2023/05/17 11:31:34;;;;;;;5.72;3.28;;;26.20;99.90;;;;;;5035929;28;20537;-56
2023/05/17 11:34:03;;;;;;;;;;;26.10;99.90;;;;;;5036622;28;20024;-56
2023/05/17 11:36:30;;;;;;;5.20;2.60;;;26.20;99.90;;;;;;5035854;28;19905;-55
2023/05/17 11:39:10;;;;;;;3.28;2.80;;;26.20;99.90;;;;;;5036152;28;20022;-56
2023/05/17 11:41:41;;;;;;;3.35;2.50;;;26.20;99.90;;;;;;5034598;28;20037;-55
2023/05/17 11:44:10;;;;;;;4.85;2.78;;;26.20;99.90;;;;;;5035772;28;20044;-56
2023/05/17 11:46:37;;;;;;;4.65;2.80;;;26.20;99.90;;;;;;5035907;28;20025;-56
2023/05/17 11:49:06;;;;;;;5.13;2.45;;;26.20;99.90;;;;;;5035985;28;20390;-55
2023/05/17 11:51:32;;;;;;;3.08;2.40;;;26.20;99.90;;;;;;5035628;28;20125;-56
2023/05/17 11:54:02;;;;;;;3.33;2.25;;;26.20;99.90;;;;;;5035942;28;20017;-56
2023/05/17 11:56:33;;;;;;;5.00;2.58;;;26.20;99.90;;;;;;5035611;28;20022;-55
2023/05/17 11:59:00;;;;;;;4.07;2.58;;;26.20;99.90;;;;;;5035551;28;20017;-56
2023/05/17 12:01:26;;;;;;;4.90;2.53;;;26.30;99.90;;;;;;5033897;28;20050;-55
2023/05/17 12:03:58;;;;;;;4.10;2.47;;;26.30;99.90;;;;;;5035606;28;20081;-56
2023/05/17 12:06:24;;;;;;;6.35;3.58;;;26.30;99.90;;;;;;5035427;28;20164;-57
2023/05/17 12:08:50;;;;;;;4.80;2.35;;;26.20;99.90;;;;;;5035472;28;20120;-56
2023/05/17 12:11:17;;;;;;;3.75;2.63;;;26.30;99.90;;;;;;5035266;28;20028;-55
2023/05/17 12:13:45;;;;;;;2.88;2.55;;;26.30;99.90;;;;;;5035383;28;20025;-55
2023/05/17 12:16:12;;;;;;;4.53;2.20;;;26.30;99.90;;;;;;5035194;28;20025;-55
2023/05/17 12:18:47;;;;;;;4.35;2.40;;;26.30;99.90;;;;;;5031195;28;20028;-56
2023/05/17 12:21:14;;;;;;;2.90;2.42;;;26.30;99.90;;;;;;5035160;28;20531;-55
2023/05/17 12:23:47;;;;;;;4.93;2.47;;;26.30;99.90;;;;;;5035306;28;20025;-55
2023/05/17 12:26:18;;;;;;;4.35;2.75;;;26.30;99.90;;;;;;5035199;28;20270;-56
2023/05/17 12:28:56;;;;;;;3.90;2.15;;;26.30;99.90;;;;;;5035068;28;20075;-55
2023/05/17 12:31:27;;;;;;;3.38;2.45;;;26.30;99.90;;;;;;5034926;28;20030;-55
2023/05/17 12:33:53;;;;;;;2.95;2.40;;;26.30;99.90;;;;;;5035178;28;20018;-56
2023/05/17 12:36:21;;;;;;;6.00;3.22;;;26.30;99.90;;;;;;5034771;28;20075;-55
2023/05/17 12:38:47;;;;;;;;;;;26.30;99.90;;;;;;5035601;28;20108;-55
2023/05/17 12:41:14;;;;;;;4.30;2.60;;;26.30;99.90;;;;;;5034880;28;20297;-56
2023/05/17 12:43:43;;;;;;;3.67;2.40;;;26.30;99.90;;;;;;5034628;28;20106;-56
2023/05/17 12:46:16;;;;;;;4.13;2.28;;;26.30;99.90;;;;;;5023318;28;20036;-56
2023/05/17 12:48:42;;;;;;;3.65;2.40;;;26.30;99.90;;;;;;5034763;28;20117;-56
2023/05/17 12:51:13;;;;;;;4.68;2.53;;;26.30;99.90;;;;;;5034700;28;20155;-55
2023/05/17 12:53:41;;;;;;;3.45;2.53;;;26.30;99.90;;;;;;5034764;28;20037;-56